Terminal Aerodrome Forecast
Issued by NWS

Home | Current Version | Previous Version | Text Only | Print | Product List | Glossary On
Versions: 1 2 3 4 5 6 7 8 9 10 11 12 13 14
000
FTUS44 KTSA 271121
TAFFYV
TAF
KFYV 271121Z 2712/2812 VRB03KT 1/2SM FG SCT010
      TEMPO 2712/2715 2SM BR VV001
     FM271500 16008KT P6SM BKN150
     FM280000 15007KT P6SM BKN100 PROB30 2800/2806 -TSRA BKN050CB=

USA.gov is the U.S. government's official web portal to all federal, state and local government web resources and services.